createdAt,value
2017-03-30T00:00:19.765Z,24.6
2017-03-30T00:01:27.861Z,24.6
2017-03-30T00:02:35.950Z,24.5
2017-03-30T00:03:44.037Z,24.5
2017-03-30T00:04:52.125Z,24.5
2017-03-30T00:06:00.211Z,24.5
2017-03-30T00:07:08.297Z,24.5
2017-03-30T00:08:16.385Z,24.5
2017-03-30T00:09:24.476Z,24.5
2017-03-30T00:10:32.569Z,24.5
2017-03-30T00:11:40.656Z,24.3
2017-03-30T00:12:48.746Z,24.3
2017-03-30T00:13:56.836Z,24.4
2017-03-30T00:15:04.922Z,24.4
2017-03-30T00:16:13.006Z,24.4
2017-03-30T00:17:21.098Z,24.4
2017-03-30T00:18:29.185Z,24.4
2017-03-30T00:19:37.271Z,24.3
2017-03-30T00:20:45.370Z,24.3
2017-03-30T00:21:53.458Z,24.4
2017-03-30T00:23:01.541Z,24.3
2017-03-30T00:24:09.636Z,24.2
2017-03-30T00:25:17.720Z,24.2
2017-03-30T00:26:25.810Z,24.3
2017-03-30T00:27:33.897Z,24.2
2017-03-30T00:28:41.985Z,24.2
2017-03-30T00:29:50.078Z,24.3
2017-03-30T00:30:58.164Z,24.2
2017-03-30T00:32:06.257Z,24.2
2017-03-30T00:33:14.343Z,24.2
2017-03-30T00:34:22.432Z,24.2
2017-03-30T00:35:30.519Z,24.2
2017-03-30T00:36:38.608Z,24.1
2017-03-30T00:37:46.694Z,24.1
2017-03-30T00:38:54.787Z,24.1
2017-03-30T00:40:02.873Z,24.1
2017-03-30T00:41:10.962Z,24.1
2017-03-30T00:42:19.049Z,24.1
2017-03-30T00:43:27.135Z,24.1
2017-03-30T00:44:35.225Z,24.1
2017-03-30T00:45:43.312Z,24.1
2017-03-30T00:46:51.399Z,24.0
2017-03-30T00:47:59.490Z,24.0
2017-03-30T00:49:07.577Z,24.0
2017-03-30T00:50:15.668Z,24.0
2017-03-30T00:51:23.750Z,24.0
2017-03-30T00:52:31.847Z,24.0
2017-03-30T00:53:39.931Z,23.9
2017-03-30T00:54:48.019Z,23.9
2017-03-30T00:55:56.114Z,24.0
2017-03-30T00:57:04.196Z,24.0
2017-03-30T00:58:12.294Z,24.0
2017-03-30T00:59:20.367Z,23.9
2017-03-30T01:00:28.460Z,23.9
2017-03-30T01:01:36.549Z,23.9
2017-03-30T01:02:44.629Z,23.9
2017-03-30T01:03:52.719Z,23.9
2017-03-30T01:05:00.807Z,23.9
2017-03-30T01:06:08.897Z,23.9
2017-03-30T01:07:16.983Z,23.9
2017-03-30T01:08:25.075Z,23.9
2017-03-30T01:09:33.158Z,23.8
2017-03-30T01:10:41.249Z,23.8
2017-03-30T01:11:49.336Z,23.8
2017-03-30T01:12:57.430Z,23.8
2017-03-30T01:14:05.511Z,23.8
2017-03-30T01:15:13.644Z,23.8
2017-03-30T01:16:21.688Z,23.8
2017-03-30T01:17:29.777Z,23.8
2017-03-30T01:18:37.869Z,23.8
2017-03-30T01:19:45.959Z,23.8
2017-03-30T01:20:54.044Z,23.7
2017-03-30T01:22:02.132Z,23.7
2017-03-30T01:23:10.224Z,23.7
2017-03-30T01:24:18.315Z,23.8
2017-03-30T01:25:26.406Z,23.6
2017-03-30T01:26:34.489Z,23.7
2017-03-30T01:27:42.576Z,23.7
2017-03-30T01:28:50.667Z,23.6
2017-03-30T01:29:58.757Z,23.6
2017-03-30T01:31:06.840Z,23.6
2017-03-30T01:32:14.929Z,23.6
2017-03-30T01:33:23.014Z,23.6
2017-03-30T01:34:31.101Z,23.6
2017-03-30T01:35:39.191Z,23.6
2017-03-30T01:36:47.277Z,23.5
2017-03-30T01:37:55.364Z,23.5
2017-03-30T01:39:03.449Z,23.5
2017-03-30T01:40:11.541Z,23.5
2017-03-30T01:41:19.629Z,23.6
2017-03-30T01:42:27.713Z,23.5
2017-03-30T01:43:35.805Z,23.6
2017-03-30T01:44:43.892Z,23.4
2017-03-30T01:45:51.976Z,23.5
2017-03-30T01:47:00.067Z,23.4
2017-03-30T01:48:08.158Z,23.4
2017-03-30T01:49:16.250Z,23.5
2017-03-30T01:50:24.332Z,23.5
2017-03-30T01:51:32.425Z,23.4
2017-03-30T01:52:40.509Z,23.4
2017-03-30T01:53:48.600Z,23.4
2017-03-30T01:54:56.684Z,23.4
2017-03-30T01:56:04.771Z,23.4
2017-03-30T01:57:12.854Z,23.4
2017-03-30T01:58:20.942Z,23.3
2017-03-30T01:59:29.031Z,23.3
2017-03-30T02:00:37.119Z,23.3
2017-03-30T02:01:45.201Z,23.3
2017-03-30T02:02:53.290Z,23.2
2017-03-30T02:04:01.379Z,23.4
2017-03-30T02:05:09.462Z,23.3
2017-03-30T02:06:17.549Z,23.3
2017-03-30T02:07:25.639Z,23.3
2017-03-30T02:08:33.733Z,23.2
2017-03-30T02:09:41.816Z,23.2
2017-03-30T02:10:49.908Z,23.2
2017-03-30T02:11:57.993Z,23.1
2017-03-30T02:13:06.081Z,23.2
2017-03-30T02:14:14.161Z,23.2
2017-03-30T02:15:22.253Z,23.2
2017-03-30T02:16:30.339Z,23.1
2017-03-30T02:17:38.421Z,23.1
2017-03-30T02:18:46.514Z,23.1
2017-03-30T02:19:54.600Z,23.2
2017-03-30T02:21:02.683Z,23.1
2017-03-30T02:22:10.774Z,23.1
2017-03-30T02:23:18.861Z,23.1
2017-03-30T02:24:26.955Z,23.1
2017-03-30T02:25:35.031Z,23.0
2017-03-30T02:26:43.119Z,23.0
2017-03-30T02:27:51.205Z,22.9
2017-03-30T02:28:59.299Z,23.0
2017-03-30T02:30:07.386Z,22.9
2017-03-30T02:31:15.474Z,23.0
2017-03-30T02:32:23.561Z,23.0
2017-03-30T02:33:31.647Z,22.9
2017-03-30T02:34:39.736Z,23.0
2017-03-30T02:35:47.835Z,23.0
2017-03-30T02:36:55.907Z,22.9
2017-03-30T02:38:03.996Z,22.9
2017-03-30T02:39:12.084Z,22.8
2017-03-30T02:40:20.246Z,22.8
2017-03-30T02:41:28.258Z,22.8
2017-03-30T02:42:36.347Z,22.8
2017-03-30T02:43:44.436Z,22.9
2017-03-30T02:44:52.522Z,22.8
2017-03-30T02:46:00.612Z,22.8
2017-03-30T02:47:08.709Z,22.8
2017-03-30T02:48:16.789Z,22.8
2017-03-30T02:49:24.871Z,22.7
2017-03-30T02:50:32.963Z,22.8
2017-03-30T02:51:41.051Z,22.7
2017-03-30T02:52:49.136Z,22.8
2017-03-30T02:53:57.224Z,22.8
2017-03-30T02:55:05.312Z,22.8
2017-03-30T02:56:13.394Z,22.8
2017-03-30T02:57:21.479Z,22.8
2017-03-30T02:58:29.577Z,22.8
2017-03-30T02:59:37.658Z,22.7
2017-03-30T03:00:45.739Z,22.6
2017-03-30T03:01:53.840Z,22.7
2017-03-30T03:03:01.922Z,22.6
2017-03-30T03:04:10.007Z,22.7
2017-03-30T03:05:18.092Z,22.6
2017-03-30T03:06:26.180Z,22.6
2017-03-30T03:07:34.271Z,22.6
2017-03-30T03:08:42.366Z,22.6
2017-03-30T03:09:50.444Z,22.6
2017-03-30T03:10:58.532Z,22.6
2017-03-30T03:12:06.614Z,22.5
2017-03-30T03:13:14.721Z,22.6
2017-03-30T03:14:22.795Z,22.5
2017-03-30T03:15:30.883Z,22.6
2017-03-30T03:16:38.969Z,22.6
2017-03-30T03:17:47.055Z,22.5
2017-03-30T03:18:55.148Z,22.5
2017-03-30T03:20:03.240Z,22.4
2017-03-30T03:21:11.323Z,22.4
2017-03-30T03:22:19.417Z,22.5
2017-03-30T03:23:27.503Z,22.4
2017-03-30T03:24:35.589Z,22.4
2017-03-30T03:25:43.680Z,22.5
2017-03-30T03:26:51.857Z,22.4
2017-03-30T03:27:59.852Z,22.3
2017-03-30T03:29:07.935Z,22.4
2017-03-30T03:30:16.028Z,22.4
2017-03-30T03:31:24.117Z,22.4
2017-03-30T03:32:32.199Z,22.3
2017-03-30T03:33:40.293Z,22.3
2017-03-30T03:34:48.377Z,22.3
2017-03-30T03:35:56.461Z,22.3
2017-03-30T03:37:04.546Z,22.2
2017-03-30T03:38:12.636Z,22.2
2017-03-30T03:39:20.727Z,22.3
2017-03-30T03:40:28.817Z,22.3
2017-03-30T03:41:36.906Z,22.2
2017-03-30T03:42:44.992Z,22.1
2017-03-30T03:43:53.149Z,22.2
2017-03-30T03:45:01.245Z,22.2
2017-03-30T03:46:09.256Z,22.2
2017-03-30T03:47:17.354Z,22.2
2017-03-30T03:48:25.428Z,22.2
2017-03-30T03:49:33.517Z,22.1
2017-03-30T03:50:41.610Z,22.1
2017-03-30T03:51:49.699Z,22.1
2017-03-30T03:52:57.780Z,22.1
2017-03-30T03:54:05.869Z,22.1
2017-03-30T03:55:13.951Z,22.1
2017-03-30T03:56:22.038Z,22.0
2017-03-30T03:57:30.125Z,22.0
2017-03-30T03:58:38.216Z,22.1
2017-03-30T03:59:46.296Z,22.0
2017-03-30T04:00:54.389Z,22.0
2017-03-30T04:02:02.472Z,22.0
2017-03-30T04:03:10.559Z,22.0
2017-03-30T04:04:18.648Z,21.9
2017-03-30T04:05:26.732Z,21.9
2017-03-30T04:06:34.818Z,22.0
2017-03-30T04:07:42.906Z,22.0
2017-03-30T04:08:51.022Z,22.0
2017-03-30T04:09:59.081Z,21.9
2017-03-30T04:11:07.164Z,22.0
2017-03-30T04:12:15.251Z,21.9
2017-03-30T04:13:23.344Z,21.9
2017-03-30T04:14:31.426Z,21.9
2017-03-30T04:15:39.510Z,21.9
2017-03-30T04:16:47.596Z,21.9
2017-03-30T04:17:55.696Z,21.9
2017-03-30T04:19:03.767Z,21.8
2017-03-30T04:20:11.848Z,21.7
2017-03-30T04:21:19.941Z,21.8
2017-03-30T04:22:28.025Z,21.8
2017-03-30T04:23:36.112Z,21.8
2017-03-30T04:24:44.200Z,21.8
2017-03-30T04:25:52.288Z,21.7
2017-03-30T04:27:00.371Z,21.7
2017-03-30T04:28:08.453Z,21.8
2017-03-30T04:29:16.547Z,21.7
2017-03-30T04:30:24.635Z,21.7
2017-03-30T04:31:32.715Z,21.7
2017-03-30T04:32:40.802Z,21.7
2017-03-30T04:33:48.892Z,21.7
2017-03-30T04:34:56.973Z,21.7
2017-03-30T04:36:05.059Z,21.7
2017-03-30T04:37:13.152Z,21.6
2017-03-30T04:38:21.245Z,21.6
2017-03-30T04:39:29.318Z,21.6
2017-03-30T04:40:37.408Z,21.7
2017-03-30T04:41:45.491Z,21.6
2017-03-30T04:42:53.578Z,21.6
2017-03-30T04:44:01.660Z,21.7
2017-03-30T04:45:09.751Z,21.6
2017-03-30T04:46:17.833Z,21.6
2017-03-30T04:47:25.919Z,21.6
2017-03-30T04:48:34.008Z,21.6
2017-03-30T04:49:42.093Z,21.6
2017-03-30T04:50:50.180Z,21.6
2017-03-30T04:51:58.262Z,21.6
2017-03-30T04:53:06.349Z,21.6
2017-03-30T04:54:14.435Z,21.6
2017-03-30T04:55:22.522Z,21.6
2017-03-30T04:56:30.605Z,21.6
2017-03-30T04:57:38.691Z,21.6
2017-03-30T04:58:46.775Z,21.6
2017-03-30T04:59:54.874Z,21.5
2017-03-30T05:01:03.063Z,21.5
2017-03-30T05:02:11.043Z,21.5
2017-03-30T05:03:19.125Z,21.5
2017-03-30T05:04:27.218Z,21.5
2017-03-30T05:05:35.305Z,21.5
2017-03-30T05:06:43.385Z,21.4
2017-03-30T05:07:51.476Z,21.4
2017-03-30T05:08:59.560Z,21.5
2017-03-30T05:10:07.643Z,21.3
2017-03-30T05:11:15.735Z,21.4
2017-03-30T05:12:23.817Z,21.4
2017-03-30T05:13:31.901Z,21.4
2017-03-30T05:14:39.984Z,21.4
2017-03-30T05:15:48.102Z,21.4
2017-03-30T05:16:56.172Z,21.4
2017-03-30T05:18:04.248Z,21.3
2017-03-30T05:19:12.337Z,21.3
2017-03-30T05:20:20.428Z,21.4
2017-03-30T05:21:28.516Z,21.4
2017-03-30T05:22:36.592Z,21.3
2017-03-30T05:23:44.684Z,21.3
2017-03-30T05:24:52.765Z,21.4
2017-03-30T05:26:00.856Z,21.3
2017-03-30T05:27:08.931Z,21.3
2017-03-30T05:28:17.024Z,21.4
2017-03-30T05:29:25.115Z,21.3
2017-03-30T05:30:33.197Z,21.2
2017-03-30T05:31:41.294Z,21.3
2017-03-30T05:32:49.372Z,21.2
2017-03-30T05:33:57.452Z,21.2
2017-03-30T05:35:05.542Z,21.2
2017-03-30T05:36:13.630Z,21.1
2017-03-30T05:37:21.714Z,21.2
2017-03-30T05:38:29.802Z,21.3
2017-03-30T05:39:37.889Z,21.3
2017-03-30T05:40:45.974Z,21.1
2017-03-30T05:41:54.063Z,21.2
2017-03-30T05:43:02.239Z,21.2
2017-03-30T05:44:10.338Z,21.2
2017-03-30T05:45:18.315Z,21.1
2017-03-30T05:46:26.400Z,21.2
2017-03-30T05:47:34.488Z,21.1
2017-03-30T05:48:42.570Z,21.1
2017-03-30T05:49:50.654Z,21.2
2017-03-30T05:50:59.429Z,21.2
2017-03-30T05:52:06.829Z,21.2
2017-03-30T05:53:14.922Z,21.2
2017-03-30T05:54:23.003Z,21.1
2017-03-30T05:55:31.092Z,21.0
2017-03-30T05:56:39.177Z,21.1
2017-03-30T05:57:47.263Z,21.0
2017-03-30T05:58:55.348Z,21.1
2017-03-30T06:00:03.465Z,21.1
2017-03-30T06:01:11.814Z,21.1
2017-03-30T06:02:20.063Z,21.1
2017-03-30T06:03:27.701Z,21.1
2017-03-30T06:04:35.781Z,21.1
2017-03-30T06:05:43.868Z,21.0
2017-03-30T06:06:51.953Z,21.1
2017-03-30T06:08:00.036Z,21.0
2017-03-30T06:09:08.117Z,21.0
2017-03-30T06:10:16.259Z,21.0
2017-03-30T06:11:24.292Z,21.0
2017-03-30T06:12:32.379Z,21.0
2017-03-30T06:13:40.460Z,21.0
2017-03-30T06:14:48.550Z,21.0
2017-03-30T06:15:56.640Z,21.0
2017-03-30T06:17:04.726Z,21.0
2017-03-30T06:18:12.806Z,21.0
2017-03-30T06:19:20.900Z,20.9
2017-03-30T06:20:29.136Z,21.0
2017-03-30T06:21:37.073Z,20.9
2017-03-30T06:22:45.158Z,20.9
2017-03-30T06:23:53.246Z,21.0
2017-03-30T06:25:01.341Z,20.9
2017-03-30T06:26:09.421Z,20.9
2017-03-30T06:27:17.504Z,20.9
2017-03-30T06:28:25.591Z,20.9
2017-03-30T06:29:33.757Z,20.9
2017-03-30T06:30:41.761Z,21.0
2017-03-30T06:31:49.847Z,20.9
2017-03-30T06:32:57.929Z,20.9
2017-03-30T06:34:06.015Z,20.9
2017-03-30T06:35:14.103Z,20.9
2017-03-30T06:36:22.190Z,20.9
2017-03-30T06:37:30.266Z,21.0
2017-03-30T06:38:38.357Z,20.9
2017-03-30T06:39:46.445Z,20.9
2017-03-30T06:40:54.532Z,20.9
2017-03-30T06:42:03.279Z,20.9
2017-03-30T06:43:10.702Z,20.9
2017-03-30T06:44:18.791Z,20.8
2017-03-30T06:45:26.951Z,20.9
2017-03-30T06:46:35.059Z,20.9
2017-03-30T06:47:43.051Z,20.9
2017-03-30T06:48:51.129Z,20.9
2017-03-30T06:49:59.218Z,20.8
2017-03-30T06:51:07.306Z,20.8
2017-03-30T06:52:15.392Z,20.9
2017-03-30T06:53:23.481Z,20.9
2017-03-30T06:54:31.563Z,20.7
2017-03-30T06:55:39.650Z,20.8
2017-03-30T06:56:47.731Z,20.8
2017-03-30T06:57:55.816Z,20.8
2017-03-30T06:59:03.904Z,20.8
2017-03-30T07:00:11.988Z,20.8
2017-03-30T07:01:20.068Z,20.8
2017-03-30T07:02:28.159Z,20.9
2017-03-30T07:03:36.266Z,20.8
2017-03-30T07:04:44.336Z,20.8
2017-03-30T07:05:52.419Z,20.8
2017-03-30T07:07:00.508Z,20.8
2017-03-30T07:08:08.593Z,20.8
2017-03-30T07:09:16.676Z,20.8
2017-03-30T07:10:24.760Z,20.8
2017-03-30T07:11:32.849Z,20.8
2017-03-30T07:12:40.931Z,20.9
2017-03-30T07:13:49.024Z,20.8
2017-03-30T07:14:57.111Z,20.7
2017-03-30T07:16:05.200Z,20.8
2017-03-30T07:17:13.281Z,20.7
2017-03-30T07:18:21.372Z,20.7
2017-03-30T07:19:29.459Z,20.7
2017-03-30T07:20:37.537Z,20.7
2017-03-30T07:21:45.623Z,20.8
2017-03-30T07:22:53.709Z,20.7
2017-03-30T07:24:01.797Z,20.7
2017-03-30T07:25:09.885Z,20.7
2017-03-30T07:26:17.975Z,20.8
2017-03-30T07:27:26.061Z,20.7
2017-03-30T07:28:34.146Z,20.7
2017-03-30T07:29:42.231Z,20.7
2017-03-30T07:30:50.319Z,20.8
2017-03-30T07:31:58.393Z,20.7
2017-03-30T07:33:06.482Z,20.7
2017-03-30T07:34:14.571Z,20.7
2017-03-30T07:35:22.657Z,20.7
2017-03-30T07:36:30.737Z,20.7
2017-03-30T07:37:38.825Z,20.7
2017-03-30T07:38:46.912Z,20.7
2017-03-30T07:39:54.999Z,20.7
2017-03-30T07:41:03.083Z,20.7
2017-03-30T07:42:11.167Z,20.7
2017-03-30T07:43:19.250Z,20.7
2017-03-30T07:44:27.329Z,20.7
2017-03-30T07:45:35.419Z,20.7
2017-03-30T07:46:43.509Z,20.6
2017-03-30T07:47:51.591Z,20.7
2017-03-30T07:48:59.677Z,20.7
2017-03-30T07:50:07.765Z,20.7
2017-03-30T07:51:15.851Z,20.7
2017-03-30T07:52:23.938Z,20.7
2017-03-30T07:53:32.025Z,20.7
2017-03-30T07:54:40.117Z,20.7
2017-03-30T07:55:48.200Z,20.7
2017-03-30T07:56:56.297Z,20.7
2017-03-30T07:58:04.373Z,20.7
2017-03-30T07:59:12.455Z,20.7
2017-03-30T08:00:20.544Z,20.7
2017-03-30T08:01:28.631Z,20.7
2017-03-30T08:02:36.714Z,20.7
2017-03-30T08:03:44.805Z,20.7
2017-03-30T08:04:52.888Z,20.7
2017-03-30T08:06:00.979Z,20.7
2017-03-30T08:07:09.067Z,20.7
2017-03-30T08:08:17.149Z,20.7
2017-03-30T08:09:25.242Z,20.7
2017-03-30T08:10:33.327Z,20.7
2017-03-30T08:11:41.410Z,20.7
2017-03-30T08:12:49.494Z,20.7
2017-03-30T08:13:57.580Z,20.9
2017-03-30T08:15:05.670Z,20.7
2017-03-30T08:16:13.752Z,20.8
2017-03-30T08:17:21.845Z,20.8
2017-03-30T08:18:29.938Z,20.8
2017-03-30T08:19:38.018Z,20.7
2017-03-30T08:20:46.106Z,20.8
2017-03-30T08:21:54.192Z,20.8
2017-03-30T08:23:02.304Z,20.8
2017-03-30T08:24:10.371Z,20.9
2017-03-30T08:25:18.454Z,20.8
2017-03-30T08:26:26.544Z,20.8
2017-03-30T08:27:34.629Z,20.8
2017-03-30T08:28:42.712Z,20.8
2017-03-30T08:29:50.797Z,20.8
2017-03-30T08:30:58.888Z,20.9
2017-03-30T08:32:06.971Z,20.9
2017-03-30T08:33:15.059Z,20.9
2017-03-30T08:34:23.148Z,20.9
2017-03-30T08:35:31.234Z,20.8
2017-03-30T08:36:39.323Z,20.8
2017-03-30T08:37:47.432Z,20.8
2017-03-30T08:38:55.494Z,20.9
2017-03-30T08:40:03.576Z,20.9
2017-03-30T08:41:11.663Z,20.9
2017-03-30T08:42:19.753Z,20.9
2017-03-30T08:43:27.838Z,20.9
2017-03-30T08:44:35.927Z,20.9
2017-03-30T08:45:44.024Z,20.9
2017-03-30T08:46:52.097Z,20.9
2017-03-30T08:48:00.180Z,20.9
2017-03-30T08:49:08.271Z,20.9
2017-03-30T08:50:16.365Z,20.9
2017-03-30T08:51:24.436Z,20.9
2017-03-30T08:52:32.528Z,20.9
2017-03-30T08:53:40.619Z,20.9
2017-03-30T08:54:48.704Z,20.9
2017-03-30T08:55:56.786Z,20.9
2017-03-30T08:57:04.876Z,21.0
2017-03-30T08:58:12.960Z,20.9
2017-03-30T08:59:21.047Z,20.9
2017-03-30T09:00:29.135Z,21.0
2017-03-30T09:01:37.223Z,20.9
2017-03-30T09:02:45.318Z,21.0
2017-03-30T09:03:53.397Z,20.9
2017-03-30T09:05:01.488Z,20.9
2017-03-30T09:06:09.579Z,21.0
2017-03-30T09:07:17.654Z,21.0
2017-03-30T09:08:25.744Z,20.9
2017-03-30T09:09:33.833Z,20.9
2017-03-30T09:10:41.912Z,21.1
2017-03-30T09:11:50.001Z,21.0
2017-03-30T09:12:58.092Z,21.0
2017-03-30T09:14:06.177Z,21.0
2017-03-30T09:15:14.263Z,21.0
2017-03-30T09:16:22.352Z,21.0
2017-03-30T09:17:30.438Z,21.0
2017-03-30T09:18:38.526Z,21.1
2017-03-30T09:19:46.623Z,21.0
2017-03-30T09:20:54.694Z,21.0
2017-03-30T09:22:02.777Z,21.0
2017-03-30T09:23:10.863Z,21.0
2017-03-30T09:24:18.950Z,21.1
2017-03-30T09:25:27.037Z,21.0
2017-03-30T09:26:35.120Z,21.1
2017-03-30T09:27:43.212Z,21.1
2017-03-30T09:28:51.315Z,21.1
2017-03-30T09:29:59.382Z,21.0
2017-03-30T09:31:07.466Z,21.1
2017-03-30T09:32:15.559Z,21.1
2017-03-30T09:33:23.644Z,21.1
2017-03-30T09:34:31.735Z,21.0
2017-03-30T09:35:39.826Z,21.1
2017-03-30T09:36:47.913Z,21.1
2017-03-30T09:37:55.996Z,21.0
2017-03-30T09:39:04.081Z,21.1
2017-03-30T09:40:12.170Z,21.0
2017-03-30T09:41:20.255Z,21.1
2017-03-30T09:42:28.335Z,21.1
2017-03-30T09:43:36.423Z,21.0
2017-03-30T09:44:44.515Z,21.0
2017-03-30T09:45:52.603Z,21.1
2017-03-30T09:47:00.846Z,21.1
2017-03-30T09:48:08.770Z,21.0
2017-03-30T09:49:16.898Z,21.1
2017-03-30T09:50:24.940Z,21.1
2017-03-30T09:51:33.030Z,21.1
2017-03-30T09:52:41.113Z,21.0
2017-03-30T09:53:49.200Z,21.1
2017-03-30T09:54:57.278Z,21.1
2017-03-30T09:56:05.370Z,21.1
2017-03-30T09:57:13.452Z,21.1
2017-03-30T09:58:21.546Z,21.0
2017-03-30T09:59:29.641Z,21.0
2017-03-30T10:00:37.727Z,21.1
2017-03-30T10:01:45.815Z,21.1
2017-03-30T10:02:53.901Z,21.1
2017-03-30T10:04:01.990Z,21.1
2017-03-30T10:05:10.084Z,21.0
2017-03-30T10:06:18.178Z,21.0
2017-03-30T10:07:26.252Z,21.0
2017-03-30T10:08:34.346Z,21.1
2017-03-30T10:09:42.418Z,21.0
2017-03-30T10:10:50.502Z,21.1
2017-03-30T10:11:58.591Z,21.0
2017-03-30T10:13:06.677Z,21.1
2017-03-30T10:14:14.758Z,21.1
2017-03-30T10:15:22.848Z,21.1
2017-03-30T10:16:30.934Z,21.1
2017-03-30T10:17:39.021Z,21.1
2017-03-30T10:18:47.103Z,21.1
2017-03-30T10:19:55.206Z,21.1
2017-03-30T10:21:03.283Z,21.1
2017-03-30T10:22:11.363Z,21.1
2017-03-30T10:23:19.451Z,21.1
2017-03-30T10:24:27.541Z,21.1
2017-03-30T10:25:35.624Z,21.1
2017-03-30T10:26:43.717Z,21.1
2017-03-30T10:27:51.806Z,21.1
2017-03-30T10:28:59.895Z,21.2
2017-03-30T10:30:07.979Z,21.0
2017-03-30T10:31:16.067Z,21.2
2017-03-30T10:32:24.151Z,21.1
2017-03-30T10:33:32.232Z,21.1
2017-03-30T10:34:40.322Z,21.2
2017-03-30T10:35:48.417Z,21.2
2017-03-30T10:36:56.501Z,21.2
2017-03-30T10:38:04.585Z,21.1
2017-03-30T10:39:12.671Z,21.1
2017-03-30T10:40:20.758Z,21.2
2017-03-30T10:41:28.881Z,21.2
2017-03-30T10:42:36.934Z,21.2
2017-03-30T10:43:45.022Z,21.1
2017-03-30T10:44:53.107Z,21.1
2017-03-30T10:46:01.193Z,21.2
2017-03-30T10:47:09.279Z,21.2
2017-03-30T10:48:17.366Z,21.1
2017-03-30T10:49:25.451Z,21.2
2017-03-30T10:50:33.540Z,21.1
2017-03-30T10:51:41.629Z,21.2
2017-03-30T10:52:49.721Z,21.3
2017-03-30T10:53:57.803Z,21.2
2017-03-30T10:55:05.898Z,21.2
2017-03-30T10:56:13.983Z,21.2
2017-03-30T10:57:22.065Z,21.3
2017-03-30T10:58:30.154Z,21.1
2017-03-30T10:59:38.243Z,21.2
2017-03-30T11:00:46.325Z,21.2
2017-03-30T11:01:54.411Z,21.2
2017-03-30T11:03:02.510Z,21.3
2017-03-30T11:04:10.589Z,21.2
2017-03-30T11:05:19.429Z,21.2
2017-03-30T11:06:26.760Z,21.2
2017-03-30T11:07:34.848Z,21.3
2017-03-30T11:08:42.935Z,21.3
2017-03-30T11:09:51.019Z,21.3
2017-03-30T11:10:59.108Z,21.3
2017-03-30T11:12:07.195Z,21.2
2017-03-30T11:13:15.275Z,21.3
2017-03-30T11:14:23.368Z,21.2
2017-03-30T11:15:31.451Z,21.2
2017-03-30T11:16:39.542Z,21.2
2017-03-30T11:17:47.625Z,21.2
2017-03-30T11:18:55.712Z,21.3
2017-03-30T11:20:03.801Z,21.3
2017-03-30T11:21:11.885Z,21.2
2017-03-30T11:22:19.968Z,21.3
2017-03-30T11:23:28.065Z,21.3
2017-03-30T11:24:36.144Z,21.3
2017-03-30T11:25:44.235Z,21.3
2017-03-30T11:26:52.323Z,21.3
2017-03-30T11:28:00.412Z,21.3
2017-03-30T11:29:08.490Z,21.3
2017-03-30T11:30:16.581Z,21.3
2017-03-30T11:31:24.666Z,21.3
2017-03-30T11:32:32.750Z,21.3
2017-03-30T11:33:40.837Z,21.4
2017-03-30T11:34:48.925Z,21.3
2017-03-30T11:35:57.014Z,21.3
2017-03-30T11:37:05.100Z,21.3
2017-03-30T11:38:13.189Z,21.3
2017-03-30T11:39:21.337Z,21.3
2017-03-30T11:40:29.383Z,21.3
2017-03-30T11:41:37.447Z,21.3
2017-03-30T11:42:45.534Z,21.3
2017-03-30T11:43:53.618Z,21.3
2017-03-30T11:45:01.700Z,21.4
2017-03-30T11:46:09.789Z,21.3
2017-03-30T11:47:17.884Z,21.3
2017-03-30T11:48:26.061Z,21.3
2017-03-30T11:49:34.055Z,21.4
2017-03-30T11:50:42.140Z,21.4
2017-03-30T11:51:50.232Z,21.3
2017-03-30T11:52:58.313Z,21.3
2017-03-30T11:54:06.403Z,21.3
2017-03-30T11:55:14.490Z,21.3
2017-03-30T11:56:22.572Z,21.3
2017-03-30T11:57:30.663Z,21.4
2017-03-30T11:58:38.749Z,21.3
2017-03-30T11:59:46.855Z,21.4
2017-03-30T12:00:54.930Z,21.4
2017-03-30T12:02:03.017Z,21.3
2017-03-30T12:03:11.105Z,21.4
2017-03-30T12:04:19.189Z,21.4
2017-03-30T12:05:27.286Z,21.4
2017-03-30T12:06:35.362Z,21.4
2017-03-30T12:07:43.453Z,21.4
2017-03-30T12:08:51.538Z,21.4
2017-03-30T12:09:59.629Z,21.4
2017-03-30T12:11:07.711Z,21.4
2017-03-30T12:12:15.795Z,21.4
2017-03-30T12:13:23.893Z,21.4
2017-03-30T12:14:31.969Z,21.4
2017-03-30T12:15:40.056Z,21.4
2017-03-30T12:16:48.140Z,21.4
2017-03-30T12:17:56.251Z,21.4
2017-03-30T12:19:04.320Z,21.3
2017-03-30T12:20:12.405Z,21.4
2017-03-30T12:21:20.496Z,21.4
2017-03-30T12:22:28.579Z,21.4
2017-03-30T12:23:36.658Z,21.4
2017-03-30T12:24:44.747Z,21.3
2017-03-30T12:25:52.870Z,21.4
2017-03-30T12:27:00.924Z,21.5
2017-03-30T12:28:09.012Z,21.3
2017-03-30T12:29:17.107Z,21.4
2017-03-30T12:30:25.188Z,21.4
2017-03-30T12:31:33.270Z,21.5
2017-03-30T12:32:41.357Z,21.4
2017-03-30T12:33:49.445Z,21.4
2017-03-30T12:34:57.528Z,21.4
2017-03-30T12:36:05.623Z,21.4
2017-03-30T12:37:13.707Z,21.4
2017-03-30T12:38:21.794Z,21.4
2017-03-30T12:39:29.879Z,21.4
2017-03-30T12:40:37.967Z,21.4
2017-03-30T12:41:46.051Z,21.4
2017-03-30T12:42:54.138Z,21.4
2017-03-30T12:44:02.218Z,21.4
2017-03-30T12:45:10.307Z,21.4
2017-03-30T12:46:18.399Z,21.4
2017-03-30T12:47:26.481Z,21.4
2017-03-30T12:48:34.570Z,21.4
2017-03-30T12:49:42.657Z,21.4
2017-03-30T12:50:50.744Z,21.4
2017-03-30T12:51:58.847Z,21.4
2017-03-30T12:53:06.923Z,21.4
2017-03-30T12:54:15.004Z,21.4
2017-03-30T12:55:23.089Z,21.4
2017-03-30T12:56:31.178Z,21.4
2017-03-30T12:57:39.264Z,21.5
2017-03-30T12:58:47.347Z,21.4
2017-03-30T12:59:55.440Z,21.4
2017-03-30T13:01:03.528Z,21.4
2017-03-30T13:02:11.617Z,21.5
2017-03-30T13:03:19.699Z,21.5
2017-03-30T13:04:27.784Z,21.4
2017-03-30T13:05:35.875Z,21.5
2017-03-30T13:06:43.958Z,21.5
2017-03-30T13:07:52.050Z,21.5
2017-03-30T13:09:00.226Z,21.4
2017-03-30T13:10:08.224Z,21.5
2017-03-30T13:11:16.311Z,21.4
2017-03-30T13:12:24.400Z,21.5
2017-03-30T13:13:32.492Z,21.5
2017-03-30T13:14:40.577Z,21.5
2017-03-30T13:15:48.658Z,21.6
2017-03-30T13:16:56.752Z,21.5
2017-03-30T13:18:04.839Z,21.4
2017-03-30T13:19:12.925Z,21.6
2017-03-30T13:20:21.009Z,21.5
2017-03-30T13:21:29.098Z,21.6
2017-03-30T13:22:37.181Z,21.6
2017-03-30T13:23:45.269Z,21.5
2017-03-30T13:24:53.368Z,21.6
2017-03-30T13:26:01.492Z,21.5
2017-03-30T13:27:09.534Z,21.6
2017-03-30T13:28:17.625Z,21.6
2017-03-30T13:29:25.713Z,21.5
2017-03-30T13:30:33.796Z,21.5
2017-03-30T13:31:41.878Z,21.5
2017-03-30T13:32:49.967Z,21.5
2017-03-30T13:33:58.049Z,21.5
2017-03-30T13:35:06.134Z,21.5
2017-03-30T13:36:14.223Z,21.5
2017-03-30T13:37:22.311Z,21.5
2017-03-30T13:38:30.395Z,21.5
2017-03-30T13:39:38.480Z,21.5
2017-03-30T13:40:46.573Z,21.6
2017-03-30T13:41:54.658Z,21.6
2017-03-30T13:43:02.739Z,21.6
2017-03-30T13:44:10.827Z,21.5
2017-03-30T13:45:18.911Z,21.5
2017-03-30T13:46:26.993Z,21.5
2017-03-30T13:47:35.083Z,21.5
2017-03-30T13:48:43.172Z,21.6
2017-03-30T13:49:51.255Z,21.6
2017-03-30T13:50:59.340Z,21.5
2017-03-30T13:52:07.426Z,21.6
2017-03-30T13:53:15.516Z,21.6
2017-03-30T13:54:23.599Z,21.6
2017-03-30T13:55:31.686Z,21.6
2017-03-30T13:56:39.771Z,21.6
2017-03-30T13:57:47.861Z,21.6
2017-03-30T13:58:55.948Z,21.6
2017-03-30T14:00:04.037Z,21.6
2017-03-30T14:01:12.125Z,21.6
2017-03-30T14:02:20.208Z,21.6
2017-03-30T14:03:28.295Z,21.6
2017-03-30T14:04:36.381Z,21.6
2017-03-30T14:05:44.471Z,21.6
2017-03-30T14:06:52.552Z,21.7
2017-03-30T14:08:00.643Z,21.6
2017-03-30T14:09:08.756Z,21.6
2017-03-30T14:10:16.816Z,21.6
2017-03-30T14:11:24.901Z,21.6
2017-03-30T14:12:32.991Z,21.7
2017-03-30T14:13:41.077Z,21.6
2017-03-30T14:14:49.163Z,21.6
2017-03-30T14:15:57.252Z,21.6
2017-03-30T14:17:05.342Z,21.7
2017-03-30T14:18:13.423Z,21.6
2017-03-30T14:19:21.517Z,21.6
2017-03-30T14:20:29.613Z,21.6
2017-03-30T14:21:37.698Z,21.6
2017-03-30T14:22:45.782Z,21.6
2017-03-30T14:23:53.872Z,21.6
2017-03-30T14:25:01.962Z,21.6
2017-03-30T14:26:10.048Z,21.6
2017-03-30T14:27:18.135Z,21.6
2017-03-30T14:28:26.226Z,21.7
2017-03-30T14:29:34.314Z,21.6
2017-03-30T14:30:42.397Z,21.7
2017-03-30T14:31:50.490Z,21.8
2017-03-30T14:32:58.574Z,21.7
2017-03-30T14:34:06.657Z,21.7
2017-03-30T14:35:14.750Z,21.6
2017-03-30T14:36:22.835Z,21.7
2017-03-30T14:37:30.922Z,21.7
2017-03-30T14:38:39.021Z,21.7
2017-03-30T14:39:47.118Z,21.7
2017-03-30T14:40:55.210Z,21.6
2017-03-30T14:42:03.291Z,21.6
2017-03-30T14:43:11.386Z,21.6
2017-03-30T14:44:19.477Z,21.6
2017-03-30T14:45:27.557Z,21.5
2017-03-30T14:46:35.652Z,21.6
2017-03-30T14:47:43.739Z,21.7
2017-03-30T14:48:51.828Z,21.6
2017-03-30T14:49:59.911Z,21.6
2017-03-30T14:51:08.002Z,21.6
2017-03-30T14:52:16.086Z,21.7
2017-03-30T14:53:24.179Z,21.6
2017-03-30T14:54:32.265Z,21.6
2017-03-30T14:55:40.356Z,21.7
2017-03-30T14:56:48.444Z,21.6
2017-03-30T14:57:56.712Z,21.6
2017-03-30T14:59:04.622Z,21.7
2017-03-30T15:00:12.698Z,21.6
2017-03-30T15:01:20.784Z,21.6
2017-03-30T15:02:28.875Z,21.6
2017-03-30T15:03:36.959Z,21.7
2017-03-30T15:04:45.045Z,21.7
2017-03-30T15:05:53.127Z,21.6